Pierre Regional Airport
KPIR : rendu visible

Aérodrome :











RETROUVEZ-NOUS SUR...

 
LOGIN :

S'inscrire | Disclaimer

   EN    FR    IT 

 









Légende :    VFR   VFR Marginal   IFR   IFR Intensif   IFR Très Intensif
Visi : 
Plafond : 
>= 8 km
>= 3000ft
5 à 8 km
1000 à 3000 ft
1500m à 5 km
500 à 1000 ft
800 à 1500m
200 à 500 ft
< 800m
< 200 ft
Symboles :   Orages  Brouillard  Fortes neiges  Fortes précipitations  Vent > 20 kt






- Altitude de l'aérodrome : 1744 ft
- Code IATA : PIR


KPIR - Pierre Regional

DERNIER METAR :
  • 100653Z AUTO 32017KT 10SM OVC031 M08/M13 A3012 RMK AO2 PK WND 34031/0601 UPB21E23SNB02E21 SLP230 P0000 T10831133

METARs EXPIRÉS :
  • 100553Z AUTO 33021G30KT 10SM OVC035 M08/M12 A3008 RMK AO2 PK WND 33030/0552 SNE0458B17E37 SLP218 P0000 60000 T10781122 11028 21078 410281156 51042
  • 100539Z AUTO 32019G28KT 7SM FEW019 OVC033 M08/M12 A3007 RMK AO2 PK WND 32029/0521 SNE0458B17E37 P0000 T10781122
  • 100530Z AUTO 33020G29KT 2SM -SN SCT020 OVC033 M08/M11 A3007 RMK AO2 PK WND 32029/0521 SNE0458B17 P0000 T10781111
  • 100525Z AUTO 33020G29KT 1 3/4SM -SN SCT020 OVC029 M08/M11 A3006 RMK AO2 PK WND 32029/0521 SNE0458B17 P0000 T10781111
  • 100501Z AUTO 34020KT 9SM SCT024 OVC034 M07/M12 A3005 RMK AO2 SNE0458 P0000 T10671122
  • 100453Z AUTO 33018G25KT 6SM -SN BKN024 OVC032 M07/M12 A3004 RMK AO2 PK WND 33030/0431 SLP204 P0000 T10721117

TAF KPIR
Valide du 10 à 06h jusqu'au 11 à 06h UTC


100525Z 1006/1106 32016KT P6SM OVC035
FM100800 32013G19KT P6SM BKN050
FM101000 33008KT P6SM BKN250
FM101700 VRB05KT P6SM SCT100



MET'MAP, la Météo Aéronautique d'un coup d'oeil ! - Copyright ORBIFLY Décembre 2007 - Disclaimer

ORBIFLY MET'MAP TEAM :

Programmation & Développement : Alexandra Zaïnal
Sur une idée originale de : Baudouin d'Aumeries
Assistance à la programmation : Marc-Olivier Méhu
Soutien technique & logistique : Manuel Goepfert

Contact : metmap@orbifly.com




SOURCES & CREDITS :

   NOAA       Earth
Advisory